This is the latest recevied weather packets stored in our database for station/object IW2DGQ-3. If no packets are shown the sender has not sent any weather packets the latest 10 day(s).
| Time | Temp. | Humidity | Pressure | Rain* | Wind** | Luminosity | Snow |
|---|---|---|---|---|---|---|---|
| 1787836816 | 34.44° C | 51% | 1017.1 hPa | - | - | - | - |
| 1787835615 | 33.33° C | 53% | 1017.1 hPa | - | - | - | - |
| 1787834415 | 33.33° C | 53% | 1017.2 hPa | - | - | - | - |
| 1787833215 | 33.89° C | 53% | 1017.2 hPa | - | - | - | - |
| 1787832014 | 33.89° C | 54% | 1017.5 hPa | - | - | - | - |
| 1787830814 | 33.33° C | 55% | 1017.5 hPa | - | - | - | - |
| 1787829614 | 33.33° C | 56% | 1017.5 hPa | - | - | - | - |
| 1787828413 | 32.22° C | 57% | 1017.5 hPa | - | - | - | - |
| 1787827213 | 32.78° C | 56% | 1017.6 hPa | - | - | - | - |
| 1787826013 | 33.33° C | 56% | 1017.6 hPa | - | - | - | - |
| 1787824813 | 32.78° C | 57% | 1017.9 hPa | - | - | - | - |
| 1787823612 | 32.22° C | 58% | 1018 hPa | - | - | - | - |
| 1787822412 | 32.22° C | 57% | 1018.1 hPa | - | - | - | - |
| 1787821212 | 33.89° C | 56% | 1018.2 hPa | - | - | - | - |
| 1787820011 | 31.11° C | 62% | 1018.3 hPa | - | - | - | - |
| 1787818811 | 30° C | 64% | 1018.3 hPa | - | - | - | - |
| 1787817611 | 30.56° C | 62% | 1018.2 hPa | - | - | - | - |
| 1787816410 | 31.11° C | 61% | 1018.1 hPa | - | - | - | - |
| 1787815210 | 29.44° C | 65% | 1017.9 hPa | - | - | - | - |
| 1787814010 | 27.22° C | 72% | 1018 hPa | - | - | - | - |
| 1787812809 | 26.67° C | 71% | 1018.1 hPa | - | - | - | - |
| 1787811609 | 30° C | 64% | 1018 hPa | - | - | - | - |
| 1787810409 | 29.44° C | 71% | 1018.1 hPa | - | - | - | - |
| 1787809208 | 26.11° C | 80% | 1018.2 hPa | - | - | - | - |
| 1787808008 | 23.33° C | 84% | 1018.3 hPa | - | - | - | - |
* Rain since midnight (hover to see other rain measurements)
** Current wind speed in m/s (hover to see current wind gust speed)